createdAt,value
2022-10-18T03:23:56.143Z,16.93
2022-10-18T03:27:06.040Z,16.73
2022-10-18T03:30:16.004Z,16.63
2022-10-18T03:33:25.924Z,16.62
2022-10-18T03:36:40.676Z,16.59
2022-10-18T03:39:50.597Z,16.59
2022-10-18T03:43:00.481Z,16.62
2022-10-18T03:46:10.441Z,16.57
2022-10-18T03:49:20.384Z,16.61
2022-10-18T03:56:30.591Z,16.70
2022-10-18T03:59:40.524Z,16.70
2022-10-18T04:02:53.338Z,16.72
2022-10-18T04:06:05.833Z,16.70
2022-10-18T04:09:19.502Z,16.68
2022-10-18T04:12:29.758Z,16.69
2022-10-18T04:15:42.562Z,16.67
2022-10-18T04:18:54.566Z,16.67
2022-10-18T04:22:04.487Z,16.69
2022-10-18T04:29:17.186Z,16.60
2022-10-18T04:32:29.418Z,16.59
2022-10-18T04:35:39.320Z,16.60
2022-10-18T04:38:49.199Z,16.61
2022-10-18T04:42:00.417Z,16.60
2022-10-18T04:45:13.398Z,16.61
2022-10-18T04:48:23.526Z,16.59
2022-10-18T04:51:40.870Z,16.56
2022-10-18T04:54:50.775Z,16.52
2022-10-18T05:38:58.630Z,16.36
2022-10-18T05:42:12.075Z,16.40
2022-10-18T05:45:22.041Z,16.40
2022-10-18T05:48:32.298Z,16.37
2022-10-18T05:51:42.260Z,16.39
2022-10-18T05:55:15.083Z,16.44
2022-10-18T05:58:27.893Z,16.44
2022-10-18T06:01:42.259Z,16.37
2022-10-18T06:04:52.169Z,16.36
2022-10-18T06:08:07.937Z,16.36
2022-10-18T06:11:22.400Z,16.35
2022-10-18T06:14:35.183Z,16.32
2022-10-18T06:17:45.089Z,16.33
2022-10-18T08:50:26.977Z,19.72
2022-10-18T08:53:51.579Z,20.17
2022-10-18T08:57:08.103Z,20.06
2022-10-18T09:00:21.436Z,19.76
2022-10-18T09:03:51.204Z,19.50
2022-10-18T09:07:19.289Z,19.26
2022-10-18T09:10:41.088Z,19.24
2022-10-18T09:14:08.036Z,19.25
2022-10-18T09:17:27.754Z,19.19
2022-10-18T09:20:50.887Z,19.20
2022-10-18T09:24:09.236Z,19.29
2022-10-18T09:27:34.901Z,19.44
2022-10-18T09:30:58.661Z,19.53
2022-10-18T09:34:16.389Z,19.54
2022-10-18T09:37:30.391Z,19.42
2022-10-18T09:40:51.339Z,19.42
2022-10-18T09:44:06.799Z,19.40
2022-10-18T09:47:24.814Z,19.24
2022-10-18T09:50:40.113Z,19.17
2022-10-18T09:54:07.147Z,18.95
2022-10-18T09:57:28.569Z,18.90
2022-10-18T10:00:48.746Z,18.94
2022-10-18T10:04:01.092Z,19.06
2022-10-18T10:07:14.872Z,19.07
2022-10-18T10:10:26.723Z,19.16
2022-10-18T10:13:40.226Z,19.12
2022-10-18T10:16:53.759Z,19.13
2022-10-18T10:20:16.762Z,19.03
2022-10-18T10:23:30.946Z,18.96
2022-10-18T10:26:41.383Z,18.93
2022-10-18T10:29:57.778Z,19.05
2022-10-18T10:33:33.792Z,19.19
2022-10-18T10:36:49.027Z,19.33
2022-10-18T10:40:19.860Z,19.46
2022-10-18T10:43:38.779Z,19.52
2022-10-18T10:46:52.563Z,19.46
2022-10-18T10:50:11.852Z,19.34
2022-10-18T10:53:29.313Z,19.43
2022-10-18T10:56:55.529Z,19.43
2022-10-18T11:00:06.154Z,19.34
2022-10-18T11:03:34.990Z,19.17
2022-10-18T11:06:50.252Z,19.19
2022-10-18T11:10:04.722Z,19.13
2022-10-18T11:13:34.039Z,19.25
2022-10-18T11:16:52.616Z,19.43
2022-10-18T11:20:23.292Z,19.81
2022-10-18T11:23:34.776Z,20.53
2022-10-18T11:26:53.752Z,21.23
2022-10-18T11:30:18.111Z,21.92
2022-10-18T11:34:07.148Z,22.59
2022-10-18T11:37:47.917Z,22.60
2022-10-18T11:41:12.545Z,22.16
2022-10-18T11:44:54.919Z,22.11
2022-10-18T11:48:23.441Z,21.84
2022-10-18T11:52:06.879Z,21.54
2022-10-18T11:55:34.941Z,21.11
2022-10-18T11:59:01.129Z,20.98
2022-10-18T12:02:32.386Z,21.02
2022-10-18T12:05:45.744Z,21.09
2022-10-18T12:08:59.625Z,21.13
2022-10-18T12:12:21.161Z,21.01
2022-10-18T12:15:34.920Z,20.93
2022-10-18T12:22:15.796Z,21.09
2022-10-18T12:25:26.378Z,21.14
2022-10-18T12:28:48.825Z,21.22
2022-10-18T12:32:07.301Z,21.19
2022-10-18T12:35:20.464Z,21.08
2022-10-18T12:38:32.765Z,21.01
2022-10-18T12:41:42.800Z,20.78
2022-10-18T12:45:05.044Z,20.74
2022-10-18T12:48:30.579Z,20.52
2022-10-18T12:51:51.787Z,20.43
2022-10-18T12:55:13.908Z,20.45
2022-10-18T12:58:30.839Z,20.48
2022-10-18T13:02:10.626Z,20.50
2022-10-18T13:05:56.306Z,20.43
2022-10-18T13:09:21.427Z,20.45
2022-10-18T13:12:49.952Z,20.54
2022-10-18T13:16:11.695Z,20.65
2022-10-18T13:19:32.031Z,20.54
2022-10-18T13:23:02.600Z,20.54
2022-10-18T13:26:25.172Z,20.50
2022-10-18T13:29:51.618Z,20.48
2022-10-18T13:33:22.191Z,20.41
2022-10-18T13:36:34.302Z,20.31
2022-10-18T13:39:45.865Z,20.31
2022-10-18T13:42:58.606Z,20.27
2022-10-18T13:46:08.612Z,20.18
2022-10-18T13:49:32.657Z,20.04
2022-10-18T13:53:03.192Z,20.11
2022-10-18T13:56:33.464Z,20.17
2022-10-18T14:00:05.204Z,20.06
2022-10-18T14:07:11.388Z,19.55
2022-10-18T14:10:43.437Z,19.34
2022-10-18T14:14:07.585Z,19.13
2022-10-18T14:17:28.230Z,18.72
2022-10-18T14:21:12.231Z,18.51
2022-10-18T14:24:24.429Z,18.43
2022-10-18T14:27:35.239Z,18.40
2022-10-18T14:30:58.033Z,18.36
2022-10-18T14:34:15.620Z,18.40
2022-10-18T14:37:29.091Z,18.47
2022-10-18T14:40:43.243Z,18.47
2022-10-18T14:43:54.983Z,18.48
2022-10-18T14:47:16.148Z,18.50
2022-10-18T14:50:30.733Z,18.54
2022-10-18T14:53:43.809Z,18.57
2022-10-18T14:56:54.193Z,18.58
2022-10-18T15:00:08.742Z,18.59
2022-10-18T15:03:28.358Z,18.57
2022-10-18T15:06:43.698Z,18.52
2022-10-18T15:09:54.640Z,18.41
2022-10-18T15:13:10.636Z,18.30
2022-10-18T15:16:24.491Z,18.19
2022-10-18T15:19:39.981Z,18.20
2022-10-18T15:22:50.081Z,18.21
2022-10-18T15:26:04.052Z,18.18
2022-10-18T15:29:18.678Z,18.20
2022-10-18T15:32:34.298Z,18.18
2022-10-18T15:35:48.786Z,18.17
2022-10-18T15:39:08.925Z,18.18
2022-10-18T15:42:40.242Z,18.22
2022-10-18T15:45:59.973Z,18.26
2022-10-18T15:49:39.897Z,18.29
2022-10-18T15:52:53.659Z,18.27
2022-10-18T15:56:11.060Z,18.26
2022-10-18T15:59:24.735Z,18.20
2022-10-18T16:02:35.279Z,18.21
2022-10-18T16:05:48.100Z,18.19
2022-10-18T16:08:59.580Z,18.17
2022-10-18T16:12:12.339Z,18.12
2022-10-18T16:15:22.296Z,18.08
2022-10-18T16:18:36.597Z,18.00
2022-10-18T16:21:46.514Z,17.88
2022-10-18T16:28:26.630Z,17.66
2022-10-18T16:31:39.211Z,17.63
2022-10-18T16:34:52.103Z,17.58
2022-10-18T16:38:07.531Z,17.55
2022-10-18T16:41:22.133Z,17.51
2022-10-18T16:44:36.969Z,17.48
2022-10-18T16:47:47.287Z,17.44
2022-10-18T16:51:00.648Z,17.35
2022-10-18T16:54:10.546Z,17.27
2022-10-18T16:57:21.786Z,17.23
2022-10-18T17:00:31.979Z,17.18
2022-10-18T17:03:41.933Z,17.12
2022-10-18T17:06:59.626Z,17.07
2022-10-18T17:10:12.702Z,17.00
2022-10-18T17:13:25.783Z,17.00
2022-10-18T17:16:38.846Z,17.00
2022-10-18T17:19:49.117Z,16.96
2022-10-18T17:22:59.019Z,16.92
2022-10-18T17:26:27.663Z,16.90
2022-10-18T17:29:43.299Z,16.90
2022-10-18T17:32:55.372Z,16.83
2022-10-18T17:36:05.775Z,16.80
2022-10-18T17:39:16.211Z,16.75
2022-10-18T17:42:29.303Z,16.64
2022-10-18T17:45:48.043Z,16.55
2022-10-18T17:49:00.094Z,16.50
2022-10-18T17:52:16.542Z,16.46
2022-10-18T17:55:29.756Z,16.44
2022-10-18T17:58:42.064Z,16.40
2022-10-18T18:01:54.073Z,16.34
2022-10-18T18:05:04.816Z,16.29
2022-10-18T18:08:15.096Z,16.18
2022-10-18T18:11:26.366Z,16.12
2022-10-18T18:14:36.672Z,16.05
2022-10-18T18:17:56.698Z,16.02
2022-10-18T18:21:07.324Z,15.99
2022-10-18T18:24:17.783Z,15.92
2022-10-18T18:27:27.704Z,15.85
2022-10-18T18:30:40.906Z,15.74
2022-10-18T18:33:54.811Z,15.61
2022-10-18T18:37:05.001Z,15.49
2022-10-18T18:40:14.912Z,15.40
2022-10-18T18:43:27.581Z,15.37
2022-10-18T18:46:38.760Z,15.38
2022-10-18T18:49:52.912Z,15.37
2022-10-18T18:53:03.028Z,15.40
2022-10-18T18:56:15.395Z,15.42
2022-10-18T18:59:25.584Z,15.35
2022-10-18T19:02:35.486Z,15.27
2022-10-18T19:05:49.194Z,15.18
2022-10-18T19:09:03.026Z,15.09
2022-10-18T19:12:15.301Z,15.03
2022-10-18T19:15:28.112Z,14.92
2022-10-18T19:18:45.198Z,14.84
2022-10-18T19:21:58.392Z,14.83
2022-10-18T19:25:13.763Z,14.85
2022-10-18T19:28:23.857Z,14.82
2022-10-18T19:31:35.051Z,14.79
2022-10-18T19:34:45.130Z,14.76
2022-10-18T19:37:56.348Z,14.73
2022-10-18T19:44:13.657Z,14.64
2022-10-18T19:47:26.442Z,14.59
2022-10-18T19:50:46.303Z,14.51
2022-10-18T19:53:59.139Z,14.48
2022-10-18T19:57:09.458Z,14.51
2022-10-18T20:00:19.884Z,14.52
2022-10-18T20:03:33.947Z,14.40
2022-10-18T20:06:44.411Z,14.32
2022-10-18T20:10:04.348Z,14.23
2022-10-18T20:13:14.484Z,14.15
